Zeigler, Illinois
Current Conditions -  °F | °C
As of 10:50 PM on Friday 19 Dec 2014 (Local Time) from KMWA Reporting Station
Overcast Overcast  
Wind Chill:   Ceiling: 6000
Heat Index:   Visibility: 7mi
Dew Point: -1°   Wind: 3mph
Humidity: 87%   Direction: 100°E
Pressure: 30.29"   Gusts: NA
Location:  37.9°N, 89.05°W
Report Text: KMWA 200450Z AUTO 10003KT 7SM OVC060 01/M01 A3029 RMK AO2
Loading
Personal Weather Stations






























Interactive Weather Map New forecast layout! Learn more

10-Day Weather Forecast

Advertisements
Track Severe Weather on mobile